Time;durP1;ratioP1;P1;durP2;ratioP2;P2;SDS_P1;SDS_P2;PMS_P1;PMS_P2;Temp;Humidity;BMP_temperature;BMP_pressure;BME280_temperature;BME280_humidity;BME280_pressure;Samples;Min_cycle;Max_cycle;Signal;HPM_P1;HPM_P2
2022/04/20 00:01:20;;;;;;;4.82;4.13;;;;;;;4.75;57.73;101131.53;7394651;19;20086;-65
2022/04/20 00:03:51;;;;;;;9.60;4.75;;;;;;;4.70;57.97;101134.09;7396011;19;20503;-65
2022/04/20 00:06:19;;;;;;;6.07;4.63;;;;;;;4.66;57.99;101134.94;7391041;19;20011;-65
2022/04/20 00:08:47;;;;;;;8.25;4.53;;;;;;;4.62;58.08;101138.38;7395793;19;20014;-65
2022/04/20 00:11:15;;;;;;;7.35;4.55;;;;;;;4.57;58.15;101133.13;7394393;19;20078;-65
2022/04/20 00:13:44;;;;;;;5.45;4.22;;;;;;;4.54;58.34;101136.56;7393967;19;20018;-66
2022/04/20 00:16:12;;;;;;;6.05;4.55;;;;;;;4.49;58.56;101132.19;7395642;19;20022;-66
2022/04/20 00:18:40;;;;;;;5.65;3.88;;;;;;;4.45;58.64;101136.47;7395549;19;20039;-66
2022/04/20 00:21:10;;;;;;;8.10;4.32;;;;;;;4.42;58.53;101139.03;7394029;19;20044;-66
2022/04/20 00:23:39;;;;;;;5.00;4.50;;;;;;;4.38;58.83;101143.31;7394142;19;20026;-66
2022/04/20 00:26:07;;;;;;;5.22;4.18;;;;;;;4.35;58.83;101139.84;7394984;19;20531;-67
2022/04/20 00:28:35;;;;;;;5.07;4.47;;;;;;;4.31;59.14;101136.34;7395614;19;20448;-66
2022/04/20 00:31:03;;;;;;;4.45;3.92;;;;;;;4.26;59.09;101134.53;7393377;19;20043;-66
2022/04/20 00:33:32;;;;;;;6.15;4.97;;;;;;;4.20;59.00;101133.63;7396046;19;20018;-66
2022/04/20 00:36:01;;;;;;;6.03;4.60;;;;;;;4.15;59.40;101132.69;7395074;19;20082;-66
2022/04/20 00:38:32;;;;;;;5.60;4.65;;;;;;;4.12;59.35;101139.56;7394963;19;20022;-66
2022/04/20 00:41:01;;;;;;;6.55;4.63;;;;;;;4.07;59.41;101127.41;7393121;19;20482;-66
2022/04/20 00:43:29;;;;;;;5.30;4.00;;;;;;;4.05;59.54;101133.44;7394849;19;20022;-66
2022/04/20 00:45:59;;;;;;;6.88;4.88;;;;;;;4.02;59.96;101133.41;7394908;19;20074;-65
2022/04/20 00:48:28;;;;;;;6.47;4.47;;;;;;;4.00;59.90;101141.19;7392869;19;20022;-66
2022/04/20 00:50:57;;;;;;;5.90;4.45;;;;;;;3.95;59.92;101140.25;7393776;19;20022;-66
2022/04/20 00:53:25;;;;;;;5.30;4.50;;;;;;;3.92;59.99;101137.63;7394174;19;20490;-66
2022/04/20 00:55:55;;;;;;;5.57;4.82;;;;;;;3.88;60.18;101139.31;7395204;19;20048;-66
2022/04/20 00:58:23;;;;;;;4.40;3.97;;;;;;;3.85;60.37;101135.81;7391836;19;20078;-66
2022/04/20 01:00:52;;;;;;;6.57;4.53;;;;;;;3.84;60.44;101136.66;7393017;19;20018;-66
2022/04/20 01:03:20;;;;;;;6.03;4.57;;;;;;;3.80;60.72;101134.88;7392327;19;20078;-65
2022/04/20 01:05:48;;;;;;;6.72;4.68;;;;;;;3.78;60.71;101131.38;7392279;19;20098;-65
2022/04/20 01:08:16;;;;;;;7.10;5.07;;;;;;;3.73;61.02;101137.41;7392129;19;20022;-65
2022/04/20 01:10:44;;;;;;;6.28;4.43;;;;;;;3.73;60.97;101136.53;7393063;19;20074;-65
2022/04/20 01:13:15;;;;;;;5.35;4.38;;;;;;;3.70;61.00;101134.78;7393641;19;20011;-66
2022/04/20 01:15:43;;;;;;;5.93;4.93;;;;;;;3.68;61.17;101139.06;7394366;19;20036;-66
2022/04/20 01:18:13;;;;;;;6.55;5.25;;;;;;;3.65;61.14;101144.22;7398117;19;20022;-66
2022/04/20 01:20:44;;;;;;;7.93;4.35;;;;;;;3.63;61.41;101148.53;7399873;19;20031;-66
2022/04/20 01:23:13;;;;;;;6.93;4.60;;;;;;;3.60;61.20;101153.66;7399412;19;20089;-65
2022/04/20 01:25:41;;;;;;;5.95;4.43;;;;;;;3.54;61.66;101145.81;7401260;19;20022;-66
2022/04/20 01:28:10;;;;;;;4.82;4.32;;;;;;;3.52;61.69;101150.09;7401116;19;20095;-66
2022/04/20 01:30:39;;;;;;;6.95;4.70;;;;;;;3.53;61.79;101149.25;7399528;19;20043;-66
2022/04/20 01:33:07;;;;;;;7.32;4.97;;;;;;;3.52;61.73;101145.75;7400867;19;20014;-65
2022/04/20 01:35:35;;;;;;;7.07;4.80;;;;;;;3.52;61.97;101139.72;7398256;19;20026;-66
2022/04/20 01:38:06;;;;;;;9.82;6.47;;;;;;;3.52;62.45;101147.50;7400831;19;20022;-65
2022/04/20 01:40:34;;;;;;;5.90;4.47;;;;;;;3.53;62.21;101142.31;7399015;19;20514;-67
2022/04/20 01:43:02;;;;;;;7.22;5.05;;;;;;;3.54;62.46;101144.06;7398660;19;20018;-66
2022/04/20 01:45:31;;;;;;;6.20;4.28;;;;;;;3.55;62.36;101131.97;7400701;19;20022;-66
2022/04/20 01:47:59;;;;;;;5.53;4.32;;;;;;;3.55;62.71;101129.38;7397856;19;20019;-65
2022/04/20 01:50:27;;;;;;;7.82;4.45;;;;;;;3.55;62.69;101127.66;7399148;19;20027;-66
2022/04/20 01:52:56;;;;;;;5.90;4.72;;;;;;;3.54;62.47;101130.25;7400376;19;20034;-66
2022/04/20 01:55:26;;;;;;;5.28;4.32;;;;;;;3.51;62.65;101125.84;7397719;19;20035;-66
2022/04/20 01:58:01;;;;;;;6.00;4.22;;;;;;;3.49;62.87;101121.50;7398964;19;20082;-66
2022/04/20 02:00:29;;;;;;;6.22;4.30;;;;;;;3.45;62.86;101123.22;7397548;19;20026;-65
2022/04/20 02:02:55;;;;;;;4.43;4.00;;;;;;;3.43;62.86;101127.50;7397397;19;20078;-66
2022/04/20 02:05:23;;;;;;;8.52;4.03;;;;;;;3.40;62.68;101128.31;7398175;19;20019;-66
2022/04/20 02:07:51;;;;;;;5.75;4.25;;;;;;;3.37;62.98;101120.47;7399729;19;20043;-66
2022/04/20 02:10:19;;;;;;;6.13;4.85;;;;;;;3.35;62.83;101119.59;7397579;19;20043;-65
2022/04/20 02:12:50;;;;;;;6.18;4.20;;;;;;;3.34;62.98;101117.00;7399672;19;20017;-65
2022/04/20 02:15:18;;;;;;;5.35;4.13;;;;;;;3.31;62.89;101117.84;7400902;19;20014;-66
2022/04/20 02:17:46;;;;;;;4.32;3.90;;;;;;;3.28;62.87;101110.00;7398487;19;20022;-65
2022/04/20 02:20:14;;;;;;;4.40;4.00;;;;;;;3.26;63.04;101114.28;7399226;19;20015;-65
2022/04/20 02:22:42;;;;;;;4.43;3.65;;;;;;;3.24;63.13;101105.63;7398861;19;20015;-66
2022/04/20 02:25:11;;;;;;;8.52;4.60;;;;;;;3.21;62.98;101105.56;7399324;19;20078;-66
2022/04/20 02:27:40;;;;;;;5.75;4.22;;;;;;;3.19;63.24;101108.13;7397091;19;20435;-66
2022/04/20 02:30:11;;;;;;;6.05;4.00;;;;;;;3.15;63.42;101101.16;7395327;19;20391;-66
2022/04/20 02:32:39;;;;;;;5.25;4.05;;;;;;;3.10;63.36;101101.09;7398446;19;20503;-66
2022/04/20 02:35:08;;;;;;;7.65;4.20;;;;;;;3.07;63.73;101113.13;7396343;19;20026;-64
2022/04/20 02:37:37;;;;;;;5.38;4.30;;;;;;;3.06;63.61;101114.88;7398074;19;20391;-65
2022/04/20 02:40:06;;;;;;;4.85;3.67;;;;;;;3.04;64.24;101124.31;7397931;19;20015;-64
2022/04/20 02:42:34;;;;;;;7.13;4.38;;;;;;;3.03;64.01;101117.44;7397536;19;20081;-65
2022/04/20 02:45:02;;;;;;;4.72;3.65;;;;;;;3.03;64.45;101111.34;7398729;19;20018;-65
2022/04/20 02:47:54;;;;;;;4.63;3.88;;;;;;;3.01;64.15;101108.75;7398517;19;20045;-66
2022/04/20 02:50:22;;;;;;;6.80;3.97;;;;;;;3.01;64.39;101116.50;7397701;19;20015;-65
2022/04/20 02:52:50;;;;;;;5.05;4.00;;;;;;;3.01;64.31;101113.03;7398317;19;20015;-65
2022/04/20 02:55:19;;;;;;;6.40;4.05;;;;;;;3.02;64.57;101114.78;7396078;19;20022;-65
2022/04/20 02:57:53;;;;;;;5.20;4.70;;;;;;;3.02;65.12;101107.00;7396988;19;20018;-65
2022/04/20 03:00:22;;;;;;;8.70;4.40;;;;;;;3.01;64.90;101106.16;7395879;19;20023;-65
2022/04/20 03:02:50;;;;;;;7.32;4.50;;;;;;;3.00;64.97;101101.81;7397031;19;20039;-65
2022/04/20 03:05:21;;;;;;;5.07;4.03;;;;;;;2.99;65.20;101102.66;7395926;19;20010;-65
2022/04/20 03:07:49;;;;;;;5.85;4.20;;;;;;;2.99;65.18;101094.88;7397923;19;20094;-65
2022/04/20 03:10:17;;;;;;;6.72;4.43;;;;;;;3.01;65.29;101103.56;7396768;19;20088;-65
2022/04/20 03:12:46;;;;;;;5.75;3.95;;;;;;;3.03;65.26;101106.16;7395669;19;20026;-65
2022/04/20 03:15:14;;;;;;;4.78;4.20;;;;;;;3.04;65.26;101106.19;7397562;19;20019;-65
2022/04/20 03:17:43;;;;;;;7.43;4.63;;;;;;;3.06;65.35;101104.50;7397449;19;20023;-66
2022/04/20 03:20:12;;;;;;;4.90;4.15;;;;;;;3.09;65.53;101101.94;7395332;19;20019;-65
2022/04/20 03:22:43;;;;;;;6.00;4.43;;;;;;;3.12;65.61;101106.28;7395882;19;20022;-65
2022/04/20 03:25:18;;;;;;;4.97;3.90;;;;;;;3.14;65.83;101108.94;7397245;19;20418;-65
2022/04/20 03:27:46;;;;;;;4.50;3.97;;;;;;;3.17;65.75;101103.78;7397519;19;20018;-65
2022/04/20 03:30:14;;;;;;;6.05;4.75;;;;;;;3.18;65.75;101105.53;7395936;19;20022;-65
2022/04/20 03:32:43;;;;;;;7.38;4.30;;;;;;;3.17;65.93;101107.25;7396565;19;20018;-66
2022/04/20 03:35:11;;;;;;;6.78;4.60;;;;;;;3.22;65.81;101110.78;7394497;19;20029;-66
2022/04/20 03:37:40;;;;;;;6.03;4.18;;;;;;;3.25;66.12;101120.34;7394529;19;20019;-66
2022/04/20 03:40:13;;;;;;;5.72;4.70;;;;;;;3.27;66.22;101118.63;7394974;19;20039;-66
2022/04/20 03:42:42;;;;;;;6.55;3.97;;;;;;;3.31;66.14;101119.53;7395892;19;20035;-66
2022/04/20 03:45:10;;;;;;;6.07;4.28;;;;;;;3.33;66.26;101116.09;7396332;19;20018;-66
2022/04/20 03:47:38;;;;;;;6.88;4.60;;;;;;;3.35;66.09;101111.81;7396182;19;20015;-65
2022/04/20 03:50:08;;;;;;;6.22;4.93;;;;;;;3.38;66.18;101105.81;7395291;19;20026;-66
2022/04/20 03:52:36;;;;;;;10.20;5.53;;;;;;;3.41;66.30;101111.91;7395579;19;20035;-66
2022/04/20 03:55:06;;;;;;;4.78;4.18;;;;;;;3.43;66.47;101102.41;7397313;19;20017;-65
2022/04/20 03:57:37;;;;;;;5.22;4.50;;;;;;;3.43;66.54;101102.41;7394916;19;20373;-65
2022/04/20 04:00:06;;;;;;;8.35;5.63;;;;;;;3.45;66.59;101102.47;7396031;19;20022;-66
2022/04/20 04:02:35;;;;;;;5.70;5.10;;;;;;;3.45;66.47;101101.56;7395466;19;20011;-66
2022/04/20 04:05:03;;;;;;;6.97;4.85;;;;;;;3.43;66.49;101109.34;7395670;19;20018;-66
2022/04/20 04:07:31;;;;;;;6.38;4.65;;;;;;;3.45;66.85;101125.81;7395240;19;20377;-66
2022/04/20 04:09:59;;;;;;;7.55;5.22;;;;;;;3.42;66.68;101116.25;7394507;19;20385;-67
2022/04/20 04:12:27;;;;;;;8.65;4.90;;;;;;;3.48;66.95;101133.59;7393401;19;20014;-65
2022/04/20 04:14:58;;;;;;;7.78;4.47;;;;;;;3.49;66.96;101122.38;7395454;19;20022;-65
2022/04/20 04:17:26;;;;;;;10.25;4.90;;;;;;;3.52;66.79;101129.34;7394203;19;20018;-66
2022/04/20 04:19:54;;;;;;;6.07;4.60;;;;;;;3.52;66.85;101131.94;7393847;19;20507;-66
2022/04/20 04:22:22;;;;;;;7.00;6.30;;;;;;;3.54;66.88;101133.69;7393201;19;20031;-65
2022/04/20 04:24:51;;;;;;;8.20;5.65;;;;;;;3.57;66.98;101135.47;7395096;19;20022;-66
2022/04/20 04:27:19;;;;;;;7.00;5.05;;;;;;;3.59;67.09;101133.78;7393144;19;20029;-66
2022/04/20 04:29:47;;;;;;;8.88;5.65;;;;;;;3.62;67.19;101140.72;7393795;19;20018;-65
2022/04/20 04:32:18;;;;;;;8.15;5.03;;;;;;;3.65;67.24;101151.13;7393651;19;20026;-65
2022/04/20 04:34:46;;;;;;;6.97;5.22;;;;;;;3.67;67.48;101146.84;7392981;19;20138;-66
2022/04/20 04:37:16;;;;;;;6.93;5.10;;;;;;;3.68;67.56;101144.25;7393239;19;20026;-65
2022/04/20 04:39:44;;;;;;;7.85;4.72;;;;;;;3.72;67.30;101145.19;7394128;19;20022;-65
2022/04/20 04:42:12;;;;;;;9.40;4.65;;;;;;;3.74;67.46;101143.44;7392985;19;20132;-65
2022/04/20 04:44:41;;;;;;;6.97;4.38;;;;;;;3.75;67.33;101140.91;7394228;19;20022;-66
2022/04/20 04:49:53;;;;;;;7.10;5.35;;;;;;;3.80;67.46;101137.47;7393971;19;20014;-65
2022/04/20 04:52:21;;;;;;;6.05;5.20;;;;;;;3.81;67.67;101132.31;7399258;19;20026;-65
2022/04/20 04:54:49;;;;;;;10.85;5.82;;;;;;;3.83;67.83;101127.13;7401865;19;20031;-65
2022/04/20 04:57:17;;;;;;;10.75;7.43;;;;;;;3.84;68.05;101124.56;7401573;19;20010;-67
2022/04/20 04:59:46;;;;;;;13.48;8.52;;;;;;;3.85;68.03;101118.50;7400984;19;20031;-66
2022/04/20 05:02:14;;;;;;;8.52;6.75;;;;;;;3.86;67.91;101117.66;7401644;19;20019;-67
2022/04/20 05:04:43;;;;;;;12.30;6.72;;;;;;;3.88;68.13;101123.75;7398848;19;20044;-66
2022/04/20 05:07:14;;;;;;;10.80;7.05;;;;;;;3.90;68.59;101126.34;7402159;19;20025;-66
2022/04/20 05:09:44;;;;;;;7.38;5.40;;;;;;;3.93;68.41;101123.81;7398695;19;20022;-66
2022/04/20 05:12:12;;;;;;;7.50;5.47;;;;;;;3.96;68.50;101129.03;7399265;19;20438;-66
2022/04/20 05:14:40;;;;;;;8.35;5.88;;;;;;;3.98;68.44;101116.06;7401624;19;20047;-66
2022/04/20 05:17:09;;;;;;;6.32;5.13;;;;;;;4.00;68.46;101120.41;7398306;19;20014;-66
2022/04/20 05:19:37;;;;;;;7.40;4.40;;;;;;;4.03;68.52;101112.66;7398332;19;20022;-65
2022/04/20 05:22:05;;;;;;;7.40;5.10;;;;;;;4.03;68.74;101115.28;7400802;19;20035;-65
2022/04/20 05:24:37;;;;;;;5.53;4.63;;;;;;;4.05;68.43;101117.88;7397816;19;20022;-66
2022/04/20 05:27:05;;;;;;;9.57;5.05;;;;;;;4.06;68.74;101115.28;7398627;19;20039;-67
2022/04/20 05:29:33;;;;;;;8.25;4.38;;;;;;;4.07;68.66;101118.78;7400588;19;20014;-66
2022/04/20 05:32:02;;;;;;;6.53;5.22;;;;;;;4.09;68.51;101119.63;7400344;19;20487;-66
2022/04/20 05:34:30;;;;;;;102.85;53.25;;;;;;;4.11;68.52;101123.13;7400065;19;20371;-67
2022/04/20 05:42:37;;;;;;;10.68;7.07;;;;;;;4.19;68.36;101116.28;7399455;19;20010;-66
2022/04/20 05:45:06;;;;;;;11.02;6.57;;;;;;;4.21;68.64;101118.94;7399713;19;20476;-65
2022/04/20 05:47:35;;;;;;;9.65;5.95;;;;;;;4.23;68.63;101122.38;7397588;19;20035;-67
2022/04/20 05:50:04;;;;;;;7.43;5.95;;;;;;;4.26;68.68;101114.66;7399143;19;20021;-66
2022/04/20 05:52:32;;;;;;;6.80;5.55;;;;;;;4.29;69.02;101113.81;7399776;19;20018;-66
2022/04/20 05:55:02;;;;;;;9.10;6.10;;;;;;;4.34;69.17;101127.72;7396832;19;20503;-66
2022/04/20 05:57:31;;;;;;;10.50;7.78;;;;;;;4.40;68.79;101130.38;7399588;19;20022;-66
2022/04/20 05:59:59;;;;;;;7.60;5.05;;;;;;;4.46;69.23;101132.13;7399093;19;20022;-66
2022/04/20 06:02:27;;;;;;;9.85;6.30;;;;;;;4.51;69.13;101127.84;7396521;19;20022;-67
2022/04/20 06:04:55;;;;;;;8.25;5.57;;;;;;;4.58;69.37;101140.06;7396894;19;20018;-66
2022/04/20 06:07:23;;;;;;;7.93;5.20;;;;;;;4.57;69.40;101125.31;7396169;19;20377;-66
2022/04/20 06:09:51;;;;;;;9.38;5.38;;;;;;;4.68;69.39;101139.28;7398862;19;20015;-67
2022/04/20 06:12:22;;;;;;;9.27;5.90;;;;;;;4.75;69.35;101139.34;7399821;19;20015;-67
2022/04/20 06:14:51;;;;;;;6.63;5.00;;;;;;;4.82;69.30;101133.34;7399789;19;20015;-67
2022/04/20 06:17:19;;;;;;;9.65;6.07;;;;;;;4.90;69.50;101123.84;7399286;19;20022;-67
2022/04/20 06:19:47;;;;;;;7.10;5.60;;;;;;;4.98;69.53;101132.59;7396239;19;20035;-67
2022/04/20 06:22:15;;;;;;;6.85;5.75;;;;;;;5.08;69.67;101135.25;7398089;19;20508;-68
2022/04/20 06:24:43;;;;;;;8.27;5.03;;;;;;;5.17;69.43;101140.56;7396083;19;20023;-67
2022/04/20 06:27:11;;;;;;;14.27;6.43;;;;;;;5.28;69.59;101143.19;7395854;19;20472;-66
2022/04/20 06:29:42;;;;;;;7.25;4.97;;;;;;;5.37;69.74;101140.66;7395813;19;20019;-67
2022/04/20 06:32:11;;;;;;;9.68;5.63;;;;;;;5.48;69.76;101143.31;7396288;19;20039;-67
2022/04/20 06:34:39;;;;;;;7.22;5.43;;;;;;;5.57;69.64;101127.75;7397862;19;20499;-67
2022/04/20 06:37:08;;;;;;;6.65;5.32;;;;;;;5.67;69.95;101126.97;7396107;19;20022;-68
2022/04/20 06:39:36;;;;;;;10.80;5.28;;;;;;;5.77;69.66;101129.59;7397705;19;20024;-67
2022/04/20 06:42:04;;;;;;;9.52;5.50;;;;;;;5.83;69.61;101122.66;7396159;19;20416;-67
2022/04/20 06:44:32;;;;;;;8.40;4.82;;;;;;;5.88;69.87;101122.69;7396845;19;20019;-67
2022/04/20 06:47:03;;;;;;;7.07;4.65;;;;;;;5.91;69.85;101108.81;7398139;19;20015;-67
2022/04/20 06:49:31;;;;;;;9.65;5.43;;;;;;;5.92;69.69;101108.81;7398370;19;20022;-67
2022/04/20 07:00:17;;;;;;;9.65;5.82;;;;;;;6.08;69.97;101106.28;7392229;19;20014;-67
2022/04/20 07:02:48;;;;;;;8.40;6.35;;;;;;;6.14;70.61;101099.38;7397171;19;20017;-66
2022/04/20 07:05:16;;;;;;;8.60;5.90;;;;;;;6.22;70.53;101103.69;7396149;19;20031;-68
2022/04/20 07:07:44;;;;;;;7.82;5.70;;;;;;;6.29;70.52;101095.94;7397503;19;20018;-69
2022/04/20 07:10:12;;;;;;;10.32;6.43;;;;;;;6.39;71.49;101099.38;7396807;19;20014;-66
2022/04/20 07:12:41;;;;;;;8.45;5.85;;;;;;;6.51;70.88;101102.03;7395626;19;20035;-67
2022/04/20 07:15:10;;;;;;;8.40;5.70;;;;;;;6.63;70.57;101111.56;7392417;19;20035;-66
2022/04/20 07:17:38;;;;;;;10.25;6.60;;;;;;;6.76;70.75;101103.75;7395289;19;20022;-66
2022/04/20 07:20:10;;;;;;;9.35;6.40;;;;;;;6.87;70.98;101098.56;7396291;19;20031;-67
2022/04/20 07:22:39;;;;;;;7.57;6.03;;;;;;;6.96;70.76;101107.25;7395400;19;20011;-67
2022/04/20 07:25:08;;;;;;;11.00;6.00;;;;;;;7.07;70.42;101108.97;7395148;19;20010;-66
2022/04/20 07:27:37;;;;;;;9.52;6.82;;;;;;;7.20;70.42;101113.28;7396637;19;20035;-66
2022/04/20 07:30:06;;;;;;;13.38;6.22;;;;;;;7.36;69.91;101105.44;7396203;19;20035;-66
2022/04/20 07:32:35;;;;;;;7.13;6.07;;;;;;;7.52;69.96;101107.13;7394148;19;20499;-66
2022/04/20 07:35:03;;;;;;;9.77;5.88;;;;;;;7.71;69.63;101109.66;7394208;19;20031;-67
2022/04/20 07:37:33;;;;;;;8.05;6.20;;;;;;;7.90;69.25;101103.47;7395702;19;20019;-67
2022/04/20 07:40:01;;;;;;;9.52;6.38;;;;;;;8.11;68.95;101107.72;7393925;19;20026;-67
2022/04/20 07:42:30;;;;;;;10.38;6.47;;;;;;;8.30;68.18;101099.75;7393536;19;20039;-67
2022/04/20 07:44:58;;;;;;;8.98;5.88;;;;;;;8.48;67.77;101104.91;7393902;19;20022;-68
2022/04/20 07:47:28;;;;;;;7.13;5.78;;;;;;;8.66;67.33;101109.97;7393903;19;20011;-67
2022/04/20 07:52:41;;;;;;;7.85;5.60;;;;;;;9.02;65.89;101114.03;7395823;19;20018;-66
2022/04/20 07:55:11;;;;;;;11.27;5.85;;;;;;;9.15;65.58;101106.97;7396213;19;20022;-66
2022/04/20 07:57:42;;;;;;;8.30;5.20;;;;;;;9.27;65.14;101111.19;7393251;19;20019;-66
2022/04/20 08:00:13;;;;;;;6.57;4.85;;;;;;;9.36;64.47;101112.84;7395451;19;20047;-66
2022/04/20 08:02:41;;;;;;;9.10;5.63;;;;;;;9.42;63.86;101118.00;7394434;19;20044;-66
2022/04/20 08:05:11;;;;;;;5.57;4.60;;;;;;;9.47;63.38;101110.97;7394417;19;20033;-67
2022/04/20 08:07:41;;;;;;;6.35;4.88;;;;;;;9.54;62.98;101110.03;7396430;19;20036;-67
2022/04/20 08:10:11;;;;;;;7.03;5.45;;;;;;;9.66;62.70;101121.25;7394076;19;20022;-67
2022/04/20 08:12:41;;;;;;;7.65;5.25;;;;;;;9.76;62.10;101100.13;7393496;19;20023;-65
2022/04/20 08:15:11;;;;;;;7.45;4.80;;;;;;;9.90;61.97;101107.81;7393447;19;20026;-65
2022/04/20 08:17:40;;;;;;;6.90;4.60;;;;;;;10.01;61.45;101106.81;7393835;19;20015;-67
2022/04/20 08:20:10;;;;;;;6.25;4.70;;;;;;;10.12;61.09;101112.78;7394656;19;20043;-67
2022/04/20 08:22:45;;;;;;;5.95;5.07;;;;;;;10.23;60.51;101102.16;7395220;19;20035;-66
2022/04/20 08:25:15;;;;;;;5.53;4.55;;;;;;;10.31;60.60;101102.88;7393146;19;20424;-67
2022/04/20 08:27:43;;;;;;;6.35;4.70;;;;;;;10.40;60.35;101097.53;7391108;19;20027;-66
2022/04/20 08:30:12;;;;;;;5.72;4.30;;;;;;;10.48;59.72;101107.06;7393760;19;20032;-66
2022/04/20 08:32:41;;;;;;;5.93;3.97;;;;;;;10.56;59.31;101098.19;7392565;19;20023;-66
2022/04/20 08:35:11;;;;;;;9.00;4.45;;;;;;;10.64;58.84;101098.06;7393736;19;20025;-66
2022/04/20 08:37:39;;;;;;;5.47;4.13;;;;;;;10.73;58.60;101103.16;7394266;19;20039;-66
2022/04/20 08:40:12;;;;;;;4.45;4.05;;;;;;;10.83;58.03;101089.84;7393244;19;20026;-67
2022/04/20 08:42:42;;;;;;;5.22;4.20;;;;;;;10.92;57.24;101101.06;7395828;19;20022;-67
2022/04/20 08:45:12;;;;;;;7.80;4.70;;;;;;;10.98;57.25;101091.34;7392350;19;20515;-67
2022/04/20 08:47:46;;;;;;;5.38;3.60;;;;;;;11.06;56.53;101092.09;7392606;19;20103;-67
2022/04/20 08:50:15;;;;;;;6.05;4.28;;;;;;;11.12;56.23;101091.97;7392546;19;20018;-68
2022/04/20 08:52:49;;;;;;;5.65;4.05;;;;;;;11.17;55.91;101095.38;7392394;19;20015;-67
2022/04/20 08:55:20;;;;;;;;;;;;;;;11.22;55.24;101097.91;7395505;19;20022;-67
2022/04/20 08:57:56;;;;;;;5.47;3.85;;;;;;;11.27;55.73;101080.28;7393848;19;19919;-66
2022/04/20 09:00:27;;;;;;;8.50;3.65;;;;;;;11.31;55.67;101086.34;7392802;19;20014;-66
2022/04/20 09:02:57;;;;;;;6.10;4.10;;;;;;;11.35;55.03;101082.81;7394268;19;20026;-66
2022/04/20 09:05:27;;;;;;;4.65;2.83;;;;;;;11.42;54.30;101079.13;7392204;19;20017;-66
2022/04/20 09:07:55;;;;;;;4.22;2.97;;;;;;;11.51;53.57;101086.84;7391657;19;20094;-65
2022/04/20 09:10:27;;;;;;;5.40;3.10;;;;;;;11.56;51.75;101082.38;7392972;19;20018;-65
2022/04/20 09:13:07;;;;;;;3.80;3.00;;;;;;;11.64;52.23;101076.94;7391124;19;20519;-66
2022/04/20 09:15:37;;;;;;;4.28;2.53;;;;;;;11.68;51.18;101078.59;7393804;19;20018;-66
2022/04/20 09:18:06;;;;;;;3.15;2.15;;;;;;;11.65;47.84;101072.53;7390606;19;20357;-66
2022/04/20 09:20:35;;;;;;;4.72;2.65;;;;;;;11.60;47.50;101077.91;7390879;19;20014;-67
2022/04/20 09:23:04;;;;;;;2.63;2.28;;;;;;;11.55;47.46;101080.63;7390786;19;20486;-66
2022/04/20 09:25:37;;;;;;;5.22;2.35;;;;;;;11.56;48.34;101089.38;7390820;19;20044;-66
2022/04/20 09:28:06;;;;;;;7.25;2.55;;;;;;;11.60;48.43;101088.44;7391434;19;20014;-68
2022/04/20 09:30:36;;;;;;;3.28;2.30;;;;;;;11.67;48.36;101084.75;7390747;19;20039;-68
2022/04/20 09:33:10;;;;;;;4.75;2.80;;;;;;;11.71;48.56;101090.81;7392472;19;20368;-68
2022/04/20 09:35:46;;;;;;;;;;;;;;;11.73;48.32;101095.16;7390967;19;20115;-68
2022/04/20 09:38:16;;;;;;;5.30;3.17;;;;;;;11.74;49.04;101088.16;7396079;19;19944;-67
2022/04/20 09:40:47;;;;;;;4.15;3.15;;;;;;;11.77;49.18;101092.47;7397593;19;20019;-66
2022/04/20 09:43:17;;;;;;;4.43;2.70;;;;;;;11.78;49.35;101095.06;7400131;19;20044;-68
2022/04/20 09:45:46;;;;;;;2.72;2.30;;;;;;;11.74;48.99;101101.28;7397384;19;20350;-69
2022/04/20 09:50:56;;;;;;;3.15;2.45;;;;;;;11.64;50.09;101099.72;7398254;19;20014;-66
2022/04/20 09:53:34;;;;;;;4.25;3.05;;;;;;;11.64;50.21;101104.97;7397271;19;20070;-66
2022/04/20 09:56:22;;;;;;;4.97;2.92;;;;;;;11.63;50.14;101100.63;7399952;19;20026;-67
2022/04/20 09:59:00;;;;;;;4.28;2.70;;;;;;;11.63;50.19;101101.50;7398122;19;20011;-66
2022/04/20 10:01:34;;;;;;;8.48;3.15;;;;;;;11.61;49.88;101099.78;7396984;19;20018;-67
2022/04/20 10:04:04;;;;;;;4.75;2.83;;;;;;;11.60;49.94;101111.19;7397726;19;20019;-66
2022/04/20 10:06:33;;;;;;;6.40;2.60;;;;;;;11.51;50.57;101115.75;7399530;19;20032;-67
2022/04/20 10:09:03;;;;;;;6.53;3.60;;;;;;;11.41;51.14;101109.81;7399761;19;20021;-67
2022/04/20 10:11:34;;;;;;;4.70;3.17;;;;;;;11.36;52.02;101110.78;7396502;19;20022;-66
2022/04/20 10:16:49;;;;;;;4.57;3.67;;;;;;;11.25;52.10;101114.47;7398885;19;20021;-68
2022/04/20 10:19:28;;;;;;;3.97;3.20;;;;;;;11.23;52.34;101116.28;7399215;19;20018;-68
2022/04/20 10:21:59;;;;;;;3.55;2.88;;;;;;;11.25;52.51;101122.34;7396802;19;20447;-70
2022/04/20 10:24:31;;;;;;;4.15;2.78;;;;;;;11.29;52.42;101114.44;7397505;19;20401;-65
2022/04/20 10:27:07;;;;;;;4.63;2.60;;;;;;;11.31;52.28;101118.75;7396660;19;20019;-64
2022/04/20 10:29:48;;;;;;;3.88;2.63;;;;;;;11.27;52.03;101116.22;7398189;19;20044;-65
2022/04/20 10:32:22;;;;;;;5.65;2.45;;;;;;;11.15;51.99;101109.44;7396098;19;20019;-67
2022/04/20 10:34:51;;;;;;;4.88;3.22;;;;;;;11.07;52.56;101112.22;7395646;19;20096;-66
2022/04/20 10:37:25;;;;;;;3.97;2.72;;;;;;;11.03;52.28;101110.50;7397738;19;20023;-66
2022/04/20 10:39:54;;;;;;;4.60;2.85;;;;;;;11.00;52.85;101115.81;7395990;19;20022;-64
2022/04/20 10:42:30;;;;;;;3.95;2.80;;;;;;;10.99;53.18;101107.06;7395641;19;20371;-65
2022/04/20 10:45:05;;;;;;;6.43;3.25;;;;;;;10.99;53.12;101104.44;7397582;19;20026;-67
2022/04/20 10:47:35;;;;;;;5.05;3.35;;;;;;;11.05;52.86;101106.09;7398043;19;20022;-66
2022/04/20 10:50:15;;;;;;;4.13;3.53;;;;;;;10.98;53.55;101107.09;7394834;19;20023;-66
2022/04/20 10:52:44;;;;;;;6.00;3.35;;;;;;;10.97;53.63;101108.00;7394594;19;20010;-67
2022/04/20 10:55:13;;;;;;;6.10;3.50;;;;;;;10.92;54.07;101094.97;7395306;19;20019;-66
2022/04/20 10:57:45;;;;;;;16.65;10.45;;;;;;;10.89;54.54;101090.63;7395156;19;20018;-66
2022/04/20 11:00:28;;;;;;;6.07;2.90;;;;;;;11.01;55.02;101083.44;7395313;19;20036;-67
2022/04/20 11:02:57;;;;;;;5.38;3.45;;;;;;;11.08;54.49;101079.78;7398416;19;20041;-66
2022/04/20 11:05:27;;;;;;;4.82;2.95;;;;;;;11.19;54.36;101079.59;7394610;19;20023;-66
2022/04/20 11:08:06;;;;;;;5.85;3.05;;;;;;;11.25;54.18;101082.97;7394605;19;20027;-64
2022/04/20 11:10:35;;;;;;;3.50;3.00;;;;;;;11.28;53.97;101075.94;7394280;19;20492;-69
2022/04/20 11:19:09;;;;;;;4.93;3.13;;;;;;;11.25;54.35;101079.47;7395481;19;20022;-65
2022/04/20 11:21:38;;;;;;;4.60;2.40;;;;;;;11.19;54.29;101069.94;7393126;19;20018;-65
2022/04/20 11:24:11;;;;;;;5.25;2.50;;;;;;;11.19;54.30;101072.56;7395653;19;20040;-65
2022/04/20 11:26:41;;;;;;;3.20;2.63;;;;;;;11.22;54.17;101067.28;7393471;19;20512;-64
2022/04/20 11:29:17;;;;;;;4.80;2.90;;;;;;;11.29;53.97;101069.78;7393984;19;20440;-65
2022/04/20 11:31:48;;;;;;;3.60;2.47;;;;;;;11.35;53.76;101056.53;7394540;19;20029;-65
2022/04/20 11:34:19;;;;;;;5.07;2.50;;;;;;;11.42;53.79;101063.38;7396735;19;20083;-66
2022/04/20 11:36:49;;;;;;;4.68;2.60;;;;;;;11.50;53.66;101055.34;7396242;19;20014;-66
2022/04/20 11:39:19;;;;;;;5.28;2.20;;;;;;;11.59;53.59;101047.28;7394294;19;20022;-65
2022/04/20 11:41:49;;;;;;;5.57;2.45;;;;;;;11.69;53.74;101047.91;7393775;19;20390;-65
2022/04/20 11:44:24;;;;;;;3.80;2.55;;;;;;;11.78;53.58;101045.13;7395931;19;20047;-65
2022/04/20 11:46:54;;;;;;;3.88;2.13;;;;;;;11.85;53.38;101053.72;7394720;19;20019;-66
2022/04/20 11:49:22;;;;;;;6.95;2.42;;;;;;;11.87;53.13;101044.91;7394168;19;20022;-66
2022/04/20 11:51:57;;;;;;;4.00;2.38;;;;;;;11.88;53.12;101044.00;7394067;19;20023;-66
2022/04/20 11:54:27;;;;;;;3.13;2.47;;;;;;;11.85;53.28;101044.09;7394604;19;20022;-66
2022/04/20 11:56:56;;;;;;;2.90;2.25;;;;;;;11.79;53.48;101035.44;7395409;19;20019;-66
2022/04/20 11:59:28;;;;;;;4.50;2.50;;;;;;;11.74;53.51;101032.94;7397756;19;20011;-66
2022/04/20 12:01:57;;;;;;;3.35;2.20;;;;;;;11.76;53.63;101032.91;7400086;19;20362;-65
2022/04/20 12:04:28;;;;;;;3.40;1.88;;;;;;;11.81;53.91;101034.50;7396894;19;20018;-66
2022/04/20 12:06:58;;;;;;;3.53;2.63;;;;;;;11.90;54.08;101034.34;7395019;19;20019;-64
2022/04/20 12:09:28;;;;;;;3.50;2.50;;;;;;;12.00;54.30;101040.25;7393488;19;20520;-65
2022/04/20 12:11:59;;;;;;;2.70;2.15;;;;;;;12.02;54.30;101037.63;7395311;19;20015;-66
2022/04/20 12:14:33;;;;;;;4.15;2.03;;;;;;;11.94;54.15;101027.22;7395807;19;20047;-66